Time;durP1;ratioP1;P1;durP2;ratioP2;P2;SDS_P1;SDS_P2;PMS_P1;PMS_P2;Temp;Humidity;BMP_temperature;BMP_pressure;BME280_temperature;BME280_humidity;BME280_pressure;Samples;Min_cycle;Max_cycle;Signal;HPM_P1;HPM_P2
2024/01/16 00:01:04;;;;;;;10.47;1.37;;;;;;;;;;5036038;28;20192;-76
2024/01/16 00:03:30;;;;;;;6.77;1.23;;;;;;;;;;5034168;28;20200;-76
2024/01/16 00:05:55;;;;;;;11.10;1.77;;;;;;;;;;5028389;28;20668;-76
2024/01/16 00:08:21;;;;;;;10.00;1.57;;;;;;;;;;5047987;28;20307;-76
2024/01/16 00:10:46;;;;;;;5.87;1.63;;;;;;;;;;5046088;28;20196;-76
2024/01/16 00:13:12;;;;;;;9.37;1.70;;;;;;;;;;5025205;28;20196;-76
2024/01/16 00:15:37;;;;;;;8.83;1.40;;;;;;;;;;5045513;28;20300;-76
2024/01/16 00:18:03;;;;;;;8.60;1.57;;;;;;;;;;5034895;28;20209;-76
2024/01/16 00:20:28;;;;;;;5.67;1.17;;;;;;;;;;5026251;28;20178;-76
2024/01/16 00:22:54;;;;;;;5.23;1.30;;;;;;;;;;5043948;28;20182;-76
2024/01/16 00:25:19;;;;;;;8.03;1.67;;;;;;;;;;5025677;28;20182;-76
2024/01/16 00:27:46;;;;;;;10.17;1.70;;;;;;;;;;5034660;28;20182;-76
2024/01/16 00:30:11;;;;;;;7.53;1.20;;;;;;;;;;5028852;28;20224;-76
2024/01/16 00:32:38;;;;;;;7.60;1.33;;;;;;;;;;5047884;28;20601;-76
2024/01/16 00:35:04;;;;;;;8.07;1.30;;;;;;;;;;5032684;28;20192;-76
2024/01/16 00:37:30;;;;;;;8.53;1.43;;;;;;;;;;5033310;28;20182;-76
2024/01/16 00:39:55;;;;;;;11.43;1.70;;;;;;;;;;5035707;28;20206;-76
2024/01/16 00:42:20;;;;;;;11.57;1.83;;;;;;;;;;5039909;28;20190;-76
2024/01/16 00:44:46;;;;;;;10.43;1.90;;;;;;;;;;5033005;28;20194;-76
2024/01/16 00:47:12;;;;;;;9.03;1.87;;;;;;;;;;5033707;28;20273;-76
2024/01/16 00:49:37;;;;;;;8.30;1.43;;;;;;;;;;5033549;28;20183;-76
2024/01/16 00:52:03;;;;;;;9.30;1.27;;;;;;;;;;5045155;28;20186;-76
2024/01/16 00:54:29;;;;;;;7.10;1.33;;;;;;;;;;5045067;28;20512;-76
2024/01/16 00:56:59;;;;;;;6.53;1.67;;;;;;;;;;5025798;28;20201;-76
2024/01/16 00:59:25;;;;;;;11.90;1.87;;;;;;;;;;5044203;28;20343;-76
2024/01/16 01:01:50;;;;;;;11.37;1.47;;;;;;;;;;5033658;28;20197;-76
2024/01/16 01:04:16;;;;;;;6.93;1.10;;;;;;;;;;5041279;28;20198;-76
2024/01/16 01:06:41;;;;;;;12.30;1.90;;;;;;;;;;5029246;28;20192;-76
2024/01/16 01:09:07;;;;;;;7.07;1.03;;;;;;;;;;5030220;28;20213;-76
2024/01/16 01:11:32;;;;;;;10.33;1.47;;;;;;;;;;5048161;28;20182;-76
2024/01/16 01:13:58;;;;;;;18.20;1.70;;;;;;;;;;5033906;28;20205;-76
2024/01/16 01:16:23;;;;;;;9.40;1.17;;;;;;;;;;5031328;28;20221;-76
2024/01/16 01:18:48;;;;;;;11.17;1.70;;;;;;;;;;5042246;28;20289;-76
2024/01/16 01:21:14;;;;;;;12.30;1.60;;;;;;;;;;5018855;28;20214;-76
2024/01/16 01:23:39;;;;;;;10.20;1.33;;;;;;;;;;5040120;28;20340;-76
2024/01/16 01:26:05;;;;;;;17.90;1.93;;;;;;;;;;5034736;28;20186;-76
2024/01/16 01:28:30;;;;;;;8.60;1.70;;;;;;;;;;5042569;28;20177;-76
2024/01/16 01:30:56;;;;;;;16.77;2.17;;;;;;;;;;5035440;28;20224;-76
2024/01/16 01:33:21;;;;;;;9.40;2.20;;;;;;;;;;5038508;28;20543;-76
2024/01/16 01:35:47;;;;;;;11.00;2.63;;;;;;;;;;5035075;28;20194;-76
2024/01/16 01:38:12;;;;;;;14.23;2.67;;;;;;;;;;5024822;28;20223;-76
2024/01/16 01:40:37;;;;;;;13.20;3.47;;;;;;;;;;5048471;28;20688;-76
2024/01/16 01:43:36;;;;;;;13.70;2.77;;;;;;;;;;5044476;28;20192;-76
2024/01/16 01:46:14;;;;;;;7.20;2.33;;;;;;;;;;5028858;28;20249;-76
2024/01/16 01:48:41;;;;;;;12.93;2.83;;;;;;;;;;5034718;28;20182;-76
2024/01/16 01:51:07;;;;;;;10.10;3.10;;;;;;;;;;5043255;28;20712;-76
2024/01/16 01:53:34;;;;;;;13.20;3.40;;;;;;;;;;5038447;28;20220;-76
2024/01/16 01:56:04;;;;;;;17.40;3.77;;;;;;;;;;5038860;28;20671;-76
2024/01/16 01:58:31;;;;;;;11.27;3.73;;;;;;;;;;5030912;28;20705;-76
2024/01/16 02:00:57;;;;;;;13.10;3.03;;;;;;;;;;5039988;28;20363;-76
2024/01/16 02:03:24;;;;;;;11.10;3.57;;;;;;;;;;5041180;28;20244;-76
2024/01/16 02:05:50;;;;;;;11.60;3.27;;;;;;;;;;5027658;28;20213;-75
2024/01/16 02:08:16;;;;;;;13.77;3.20;;;;;;;;;;5042255;28;20190;-76
2024/01/16 02:10:45;;;;;;;15.00;3.40;;;;;;;;;;5046921;28;20189;-76
2024/01/16 02:13:11;;;;;;;15.93;3.33;;;;;;;;;;5044717;28;20182;-75
2024/01/16 02:15:39;;;;;;;18.50;4.00;;;;;;;;;;5047339;28;20693;-76
2024/01/16 02:18:04;;;;;;;12.67;3.67;;;;;;;;;;5043169;28;20202;-75
2024/01/16 02:20:31;;;;;;;15.30;3.57;;;;;;;;;;5011342;28;20272;-75
2024/01/16 02:23:03;;;;;;;22.00;4.17;;;;;;;;;;5029865;28;20190;-76
2024/01/16 02:25:29;;;;;;;16.57;4.00;;;;;;;;;;5044725;28;20189;-76
2024/01/16 02:27:54;;;;;;;18.70;4.30;;;;;;;;;;5043222;28;20633;-75
2024/01/16 02:30:19;;;;;;;15.60;3.50;;;;;;;;;;5033831;28;20259;-75
2024/01/16 02:32:45;;;;;;;12.10;3.97;;;;;;;;;;5037800;28;20218;-75
2024/01/16 02:35:10;;;;;;;20.67;4.13;;;;;;;;;;5042147;28;20200;-77
2024/01/16 02:37:36;;;;;;;20.90;4.67;;;;;;;;;;5040948;28;20189;-75
2024/01/16 02:40:05;;;;;;;9.37;3.60;;;;;;;;;;5037558;28;20205;-75
2024/01/16 02:42:32;;;;;;;14.63;4.33;;;;;;;;;;5041939;28;20646;-75
2024/01/16 02:44:57;;;;;;;16.03;4.17;;;;;;;;;;5048302;28;20535;-75
2024/01/16 02:47:23;;;;;;;7.37;3.40;;;;;;;;;;5032556;28;20272;-75
2024/01/16 02:49:48;;;;;;;14.33;3.23;;;;;;;;;;5036841;28;20297;-75
2024/01/16 02:52:13;;;;;;;17.33;3.50;;;;;;;;;;5048861;28;20193;-75
2024/01/16 02:54:39;;;;;;;14.63;3.10;;;;;;;;;;5044820;28;20217;-75
2024/01/16 02:57:05;;;;;;;18.33;3.33;;;;;;;;;;5040933;28;20244;-76
2024/01/16 02:59:31;;;;;;;13.07;2.90;;;;;;;;;;5036097;28;20205;-75
2024/01/16 03:01:56;;;;;;;12.27;3.60;;;;;;;;;;5023431;28;20246;-75
2024/01/16 03:04:22;;;;;;;12.20;2.97;;;;;;;;;;5040157;28;20189;-75
2024/01/16 03:06:47;;;;;;;13.23;3.47;;;;;;;;;;5037955;28;20272;-75
2024/01/16 03:09:13;;;;;;;16.97;3.00;;;;;;;;;;5034109;28;20204;-75
2024/01/16 03:11:38;;;;;;;12.63;2.47;;;;;;;;;;5018461;28;20200;-76
2024/01/16 03:14:05;;;;;;;9.07;2.63;;;;;;;;;;5042166;28;20188;-75
2024/01/16 03:16:31;;;;;;;10.97;2.57;;;;;;;;;;5029920;28;20220;-75
2024/01/16 03:18:57;;;;;;;12.37;2.50;;;;;;;;;;5026382;28;20201;-75
2024/01/16 03:21:23;;;;;;;8.17;2.50;;;;;;;;;;5037517;28;20216;-75
2024/01/16 03:23:48;;;;;;;13.67;2.40;;;;;;;;;;5041351;28;20593;-75
2024/01/16 03:26:14;;;;;;;18.10;2.77;;;;;;;;;;5040034;28;20350;-75
2024/01/16 03:28:40;;;;;;;8.93;2.40;;;;;;;;;;5029083;28;20197;-75
2024/01/16 03:31:06;;;;;;;10.37;2.80;;;;;;;;;;5037314;28;20237;-76
2024/01/16 03:33:34;;;;;;;14.10;2.47;;;;;;;;;;5047376;28;20205;-75
2024/01/16 03:35:59;;;;;;;14.60;3.10;;;;;;;;;;5031183;28;20586;-75
2024/01/16 03:38:25;;;;;;;15.10;2.80;;;;;;;;;;5037819;28;20288;-75
2024/01/16 03:40:51;;;;;;;10.07;2.90;;;;;;;;;;5043147;28;20279;-75
2024/01/16 03:43:17;;;;;;;10.30;2.97;;;;;;;;;;5046472;28;20504;-75
2024/01/16 03:45:42;;;;;;;11.20;2.67;;;;;;;;;;5038375;28;20193;-75
2024/01/16 03:48:08;;;;;;;11.63;3.00;;;;;;;;;;5042502;28;20197;-75
2024/01/16 03:50:35;;;;;;;10.77;2.50;;;;;;;;;;5040684;28;20367;-75
2024/01/16 03:53:01;;;;;;;11.17;2.83;;;;;;;;;;5047683;28;20418;-75
2024/01/16 03:55:26;;;;;;;10.57;3.10;;;;;;;;;;5019251;28;20190;-75
2024/01/16 03:57:52;;;;;;;13.63;2.97;;;;;;;;;;5033191;28;20198;-75
2024/01/16 04:00:17;;;;;;;8.60;2.80;;;;;;;;;;5038645;28;20220;-75
2024/01/16 04:02:43;;;;;;;16.20;3.27;;;;;;;;;;5033881;28;20186;-75
2024/01/16 04:05:08;;;;;;;11.90;3.30;;;;;;;;;;5047354;28;20188;-75
2024/01/16 04:07:34;;;;;;;13.27;3.13;;;;;;;;;;5038876;28;20225;-75
2024/01/16 04:09:59;;;;;;;7.90;3.00;;;;;;;;;;5040972;28;20186;-75
2024/01/16 04:12:24;;;;;;;17.17;3.20;;;;;;;;;;5038541;28;20193;-75
2024/01/16 04:14:50;;;;;;;8.93;3.10;;;;;;;;;;5034961;28;20720;-75
2024/01/16 04:17:15;;;;;;;11.00;2.90;;;;;;;;;;5035947;28;20189;-75
2024/01/16 04:19:41;;;;;;;12.43;3.10;;;;;;;;;;5048905;28;20325;-75
2024/01/16 04:22:06;;;;;;;8.80;2.97;;;;;;;;;;5032480;28;20186;-75
2024/01/16 04:24:31;;;;;;;11.27;2.60;;;;;;;;;;5021382;28;20614;-75
2024/01/16 04:26:57;;;;;;;8.73;2.37;;;;;;;;;;5035268;28;20652;-75
2024/01/16 04:29:22;;;;;;;7.73;2.43;;;;;;;;;;5037180;28;20214;-75
2024/01/16 04:31:48;;;;;;;14.80;2.60;;;;;;;;;;5038913;28;20280;-75
2024/01/16 04:34:13;;;;;;;9.40;2.93;;;;;;;;;;5045475;28;20190;-75
2024/01/16 04:36:39;;;;;;;16.47;2.70;;;;;;;;;;5039391;28;20222;-75
2024/01/16 04:39:04;;;;;;;9.53;2.40;;;;;;;;;;5028209;28;20213;-75
2024/01/16 04:41:30;;;;;;;10.30;2.77;;;;;;;;;;5039490;28;20186;-75
2024/01/16 04:43:55;;;;;;;9.30;2.70;;;;;;;;;;5033722;28;20197;-75
2024/01/16 04:46:21;;;;;;;10.43;3.83;;;;;;;;;;5030260;28;20182;-76
2024/01/16 04:48:46;;;;;;;8.40;2.20;;;;;;;;;;5051807;28;20544;-75
2024/01/16 04:51:11;;;;;;;9.40;2.77;;;;;;;;;;5039584;28;20224;-75
2024/01/16 04:53:37;;;;;;;12.17;2.80;;;;;;;;;;5041994;28;20204;-75
2024/01/16 04:56:02;;;;;;;9.40;3.40;;;;;;;;;;5050816;28;20246;-75
2024/01/16 04:58:28;;;;;;;8.83;2.90;;;;;;;;;;5030803;28;20206;-75
2024/01/16 05:00:54;;;;;;;10.37;2.80;;;;;;;;;;5045448;28;20630;-75
2024/01/16 05:03:19;;;;;;;11.60;2.30;;;;;;;;;;5042365;28;20638;-75
2024/01/16 05:05:45;;;;;;;6.70;2.50;;;;;;;;;;5016965;28;20221;-75
2024/01/16 05:08:10;;;;;;;10.27;2.40;;;;;;;;;;5035688;28;20273;-75
2024/01/16 05:10:36;;;;;;;11.27;2.70;;;;;;;;;;5039113;28;20190;-75
2024/01/16 05:13:01;;;;;;;11.23;3.10;;;;;;;;;;5032171;28;20197;-75
2024/01/16 05:15:26;;;;;;;12.80;2.40;;;;;;;;;;5045537;28;20232;-75
2024/01/16 05:17:53;;;;;;;8.23;2.37;;;;;;;;;;5031277;28;20198;-75
2024/01/16 05:20:18;;;;;;;9.03;2.60;;;;;;;;;;5052508;28;20217;-75
2024/01/16 05:22:44;;;;;;;6.87;2.57;;;;;;;;;;5045163;28;20185;-75
2024/01/16 05:25:09;;;;;;;7.57;2.43;;;;;;;;;;5037454;28;20194;-75
2024/01/16 05:27:35;;;;;;;8.03;2.30;;;;;;;;;;5042964;28;20193;-76
2024/01/16 05:30:00;;;;;;;5.70;2.50;;;;;;;;;;5033267;28;20186;-75
2024/01/16 05:32:26;;;;;;;9.77;2.37;;;;;;;;;;5049043;28;20194;-75
2024/01/16 05:34:52;;;;;;;7.00;2.30;;;;;;;;;;5049073;28;20235;-75
2024/01/16 05:37:18;;;;;;;5.20;2.00;;;;;;;;;;5049812;28;20384;-75
2024/01/16 05:39:44;;;;;;;6.30;2.53;;;;;;;;;;5047511;28;20237;-75
2024/01/16 05:42:11;;;;;;;8.40;2.07;;;;;;;;;;5044223;28;20227;-75
2024/01/16 05:44:36;;;;;;;3.83;2.17;;;;;;;;;;5044237;28;20193;-75
2024/01/16 05:47:02;;;;;;;6.33;2.37;;;;;;;;;;5043878;28;20467;-75
2024/01/16 05:49:27;;;;;;;9.67;1.93;;;;;;;;;;5026459;28;20232;-75
2024/01/16 05:51:53;;;;;;;3.40;2.00;;;;;;;;;;5042722;28;20190;-75
2024/01/16 05:54:18;;;;;;;8.13;2.07;;;;;;;;;;5043086;28;20190;-75
2024/01/16 05:56:43;;;;;;;6.83;2.03;;;;;;;;;;5034805;28;20178;-75
2024/01/16 05:59:09;;;;;;;5.60;2.10;;;;;;;;;;5038382;28;20684;-75
2024/01/16 06:01:34;;;;;;;10.60;2.10;;;;;;;;;;5046483;28;20193;-75
2024/01/16 06:04:00;;;;;;;6.83;2.37;;;;;;;;;;5041557;28;20682;-75
2024/01/16 06:06:26;;;;;;;8.87;2.53;;;;;;;;;;5044419;28;20185;-75
2024/01/16 06:08:52;;;;;;;10.80;2.17;;;;;;;;;;5036157;28;20185;-75
2024/01/16 06:11:19;;;;;;;5.23;2.10;;;;;;;;;;5038075;28;20231;-75
2024/01/16 06:13:44;;;;;;;6.53;1.87;;;;;;;;;;5031434;28;20190;-75
2024/01/16 06:16:10;;;;;;;8.33;1.97;;;;;;;;;;5046301;28;20233;-75
2024/01/16 06:18:35;;;;;;;6.27;2.30;;;;;;;;;;5039577;28;20241;-75
2024/01/16 06:21:01;;;;;;;8.97;2.23;;;;;;;;;;5035150;28;20189;-75
2024/01/16 06:23:27;;;;;;;6.33;2.30;;;;;;;;;;5026976;28;20580;-75
2024/01/16 06:25:52;;;;;;;12.37;2.53;;;;;;;;;;5029899;28;20284;-75
2024/01/16 06:28:18;;;;;;;6.53;1.90;;;;;;;;;;5035998;28;20191;-76
2024/01/16 06:30:43;;;;;;;7.40;2.40;;;;;;;;;;5018027;28;20395;-75
2024/01/16 06:33:08;;;;;;;4.03;2.17;;;;;;;;;;5028535;28;20572;-76
2024/01/16 06:35:34;;;;;;;9.73;2.13;;;;;;;;;;5043370;28;20524;-75
2024/01/16 06:37:59;;;;;;;6.87;2.17;;;;;;;;;;5049994;28;20246;-75
2024/01/16 06:40:25;;;;;;;10.83;2.27;;;;;;;;;;5045081;28;20239;-76
2024/01/16 06:42:50;;;;;;;7.70;2.20;;;;;;;;;;5042488;28;20200;-76
2024/01/16 06:45:16;;;;;;;11.97;2.67;;;;;;;;;;5022307;28;20189;-76
2024/01/16 06:47:42;;;;;;;9.13;1.93;;;;;;;;;;5044600;28;20192;-75
2024/01/16 06:50:08;;;;;;;6.23;2.40;;;;;;;;;;5037817;28;20185;-76
2024/01/16 06:52:34;;;;;;;8.43;2.90;;;;;;;;;;5042778;28;20242;-76
2024/01/16 06:54:59;;;;;;;7.10;2.50;;;;;;;;;;5045115;28;20667;-76
2024/01/16 06:57:25;;;;;;;7.10;2.93;;;;;;;;;;5022932;28;20639;-76
2024/01/16 06:59:50;;;;;;;12.97;3.00;;;;;;;;;;5038524;28;20283;-76
2024/01/16 07:02:15;;;;;;;12.57;3.20;;;;;;;;;;5035688;28;20607;-76
2024/01/16 07:04:41;;;;;;;9.80;3.23;;;;;;;;;;5021807;28;20190;-76
2024/01/16 07:07:06;;;;;;;7.90;3.07;;;;;;;;;;5021426;28;20185;-76
2024/01/16 07:09:32;;;;;;;7.17;3.07;;;;;;;;;;5035585;28;20261;-76
2024/01/16 07:11:57;;;;;;;9.27;3.50;;;;;;;;;;5020281;28;20268;-76
2024/01/16 07:14:22;;;;;;;8.77;3.67;;;;;;;;;;5040256;28;20649;-76
2024/01/16 07:16:49;;;;;;;7.40;3.53;;;;;;;;;;5044512;28;20189;-75
2024/01/16 07:19:15;;;;;;;14.85;5.30;;;;;;;;;;5017127;28;20442;-76
2024/01/16 07:21:40;;;;;;;9.57;4.43;;;;;;;;;;5043101;28;20550;-75
2024/01/16 07:24:06;;;;;;;14.33;5.27;;;;;;;;;;5035277;28;20195;-76
2024/01/16 07:26:31;;;;;;;14.63;4.27;;;;;;;;;;5033541;28;20255;-76
2024/01/16 07:28:57;;;;;;;12.30;4.27;;;;;;;;;;5027686;28;20181;-74
2024/01/16 07:31:23;;;;;;;8.70;4.37;;;;;;;;;;5045097;28;20185;-75
2024/01/16 07:33:48;;;;;;;12.70;4.27;;;;;;;;;;5033199;28;20268;-75
2024/01/16 07:36:14;;;;;;;8.53;4.30;;;;;;;;;;5037115;28;20663;-75
2024/01/16 07:38:40;;;;;;;9.73;4.60;;;;;;;;;;5036629;28;20839;-76
2024/01/16 07:41:06;;;;;;;15.77;5.47;;;;;;;;;;5035659;28;20536;-76
2024/01/16 07:43:32;;;;;;;11.43;5.67;;;;;;;;;;5041948;28;21148;-76
2024/01/16 07:45:58;;;;;;;10.70;6.20;;;;;;;;;;5030910;28;20613;-75
2024/01/16 07:48:23;;;;;;;15.10;6.53;;;;;;;;;;5046176;28;20182;-76
2024/01/16 07:50:49;;;;;;;14.33;6.57;;;;;;;;;;5037595;28;20280;-76
2024/01/16 07:53:15;;;;;;;13.67;6.57;;;;;;;;;;5043651;28;20272;-76
2024/01/16 07:55:41;;;;;;;13.60;6.17;;;;;;;;;;5042202;28;20296;-76
2024/01/16 07:58:07;;;;;;;13.47;6.77;;;;;;;;;;5043562;28;20725;-76
2024/01/16 08:00:32;;;;;;;17.77;6.80;;;;;;;;;;5035421;28;20236;-76
2024/01/16 08:02:58;;;;;;;12.97;6.63;;;;;;;;;;5023354;28;20193;-76
2024/01/16 08:05:25;;;;;;;12.37;6.43;;;;;;;;;;5033984;28;20272;-76
2024/01/16 08:07:51;;;;;;;17.10;7.07;;;;;;;;;;5034163;28;20621;-76
2024/01/16 08:10:16;;;;;;;14.43;6.93;;;;;;;;;;5042106;28;20454;-76
2024/01/16 08:12:42;;;;;;;15.57;6.47;;;;;;;;;;5041381;28;20222;-76
2024/01/16 08:15:08;;;;;;;16.80;7.43;;;;;;;;;;5044232;28;20276;-76
2024/01/16 08:17:34;;;;;;;12.97;6.70;;;;;;;;;;5035156;28;20186;-76
2024/01/16 08:19:59;;;;;;;12.93;6.87;;;;;;;;;;5044820;28;20704;-76
2024/01/16 08:22:25;;;;;;;14.40;7.50;;;;;;;;;;5044863;28;20197;-76
2024/01/16 08:24:50;;;;;;;13.70;6.90;;;;;;;;;;5050899;28;20238;-76
2024/01/16 08:27:16;;;;;;;17.33;7.00;;;;;;;;;;5044519;28;20182;-76
2024/01/16 08:29:42;;;;;;;16.70;7.03;;;;;;;;;;5031562;28;20692;-76
2024/01/16 08:32:08;;;;;;;14.03;6.97;;;;;;;;;;5041114;28;20190;-76
2024/01/16 08:34:33;;;;;;;18.03;7.77;;;;;;;;;;5034221;28;20269;-76
2024/01/16 08:36:58;;;;;;;13.90;6.37;;;;;;;;;;5029862;28;20194;-76
2024/01/16 08:39:24;;;;;;;14.60;7.23;;;;;;;;;;5037341;28;20210;-76
2024/01/16 08:41:50;;;;;;;17.47;7.03;;;;;;;;;;5040919;28;20636;-76
2024/01/16 08:44:16;;;;;;;14.43;6.73;;;;;;;;;;5048779;28;20181;-76
2024/01/16 08:46:41;;;;;;;14.23;7.67;;;;;;;;;;5031604;28;20197;-76
2024/01/16 08:49:07;;;;;;;11.90;7.40;;;;;;;;;;5019074;28;20190;-76
2024/01/16 08:51:32;;;;;;;13.40;7.33;;;;;;;;;;5043317;28;20194;-76
2024/01/16 08:53:57;;;;;;;15.60;7.33;;;;;;;;;;5040594;28;20220;-76
2024/01/16 08:56:23;;;;;;;15.60;7.53;;;;;;;;;;5034974;28;20186;-76
2024/01/16 08:58:48;;;;;;;17.63;6.97;;;;;;;;;;5040339;28;20566;-76
2024/01/16 09:01:14;;;;;;;17.43;7.70;;;;;;;;;;5043293;28;20300;-76
2024/01/16 09:03:41;;;;;;;14.60;7.07;;;;;;;;;;5018315;28;20614;-77
2024/01/16 09:06:06;;;;;;;13.67;7.43;;;;;;;;;;5029023;28;20182;-76
2024/01/16 09:08:32;;;;;;;14.93;7.50;;;;;;;;;;5029925;28;20186;-76
2024/01/16 09:10:57;;;;;;;10.63;7.10;;;;;;;;;;5040063;28;20221;-76
2024/01/16 09:13:23;;;;;;;13.13;6.53;;;;;;;;;;5033343;28;20186;-76
2024/01/16 09:15:49;;;;;;;14.00;7.30;;;;;;;;;;5028545;28;20637;-76
2024/01/16 09:18:15;;;;;;;20.90;6.97;;;;;;;;;;5030747;28;20201;-76
2024/01/16 09:20:42;;;;;;;12.67;6.73;;;;;;;;;;5053254;28;20224;-76
2024/01/16 09:23:07;;;;;;;10.43;6.77;;;;;;;;;;5045457;28;20197;-77
2024/01/16 09:25:34;;;;;;;12.97;7.00;;;;;;;;;;5030618;28;20182;-77
2024/01/16 09:28:00;;;;;;;10.80;6.60;;;;;;;;;;5040799;28;20185;-77
2024/01/16 09:30:25;;;;;;;13.77;6.83;;;;;;;;;;5026631;28;20174;-77
2024/01/16 09:32:51;;;;;;;13.80;6.53;;;;;;;;;;5040823;28;20189;-77
2024/01/16 09:35:16;;;;;;;11.23;6.57;;;;;;;;;;5044381;28;20181;-77
2024/01/16 09:37:41;;;;;;;12.07;6.93;;;;;;;;;;5020101;28;20186;-77
2024/01/16 09:40:08;;;;;;;13.67;7.07;;;;;;;;;;5023804;28;20263;-77
2024/01/16 09:42:34;;;;;;;15.03;7.70;;;;;;;;;;5028758;28;20197;-77
2024/01/16 09:45:02;;;;;;;10.67;6.53;;;;;;;;;;5046892;28;20513;-77
2024/01/16 09:47:31;;;;;;;17.43;6.90;;;;;;;;;;5049888;28;20215;-77
2024/01/16 09:49:58;;;;;;;13.43;7.40;;;;;;;;;;5035123;28;20649;-77
2024/01/16 09:52:24;;;;;;;14.50;7.70;;;;;;;;;;5039209;28;20193;-77
2024/01/16 09:54:50;;;;;;;18.10;7.27;;;;;;;;;;5047769;28;20199;-77
2024/01/16 09:57:18;;;;;;;16.47;7.67;;;;;;;;;;5039167;28;20669;-76
2024/01/16 09:59:44;;;;;;;15.40;7.70;;;;;;;;;;5031260;28;20654;-77
2024/01/16 10:02:12;;;;;;;18.20;8.00;;;;;;;;;;5045166;28;20303;-76
2024/01/16 10:04:38;;;;;;;13.97;7.63;;;;;;;;;;5039651;28;20186;-78
2024/01/16 10:07:04;;;;;;;17.90;8.07;;;;;;;;;;5042378;28;20423;-77
2024/01/16 10:09:30;;;;;;;19.73;8.23;;;;;;;;;;5035957;28;20243;-76
2024/01/16 10:11:55;;;;;;;14.57;8.13;;;;;;;;;;5026629;28;20642;-76
2024/01/16 10:14:21;;;;;;;17.47;8.03;;;;;;;;;;5029060;28;20218;-77
2024/01/16 10:16:57;;;;;;;17.93;8.47;;;;;;;;;;5032665;28;20511;-76
2024/01/16 10:19:22;;;;;;;21.23;9.00;;;;;;;;;;5037968;28;20703;-76
2024/01/16 10:21:48;;;;;;;22.63;8.33;;;;;;;;;;5023454;28;20206;-76
2024/01/16 10:24:13;;;;;;;20.80;8.37;;;;;;;;;;5046046;28;20186;-76
2024/01/16 10:26:39;;;;;;;17.93;8.57;;;;;;;;;;5040933;28;20591;-76
2024/01/16 10:29:04;;;;;;;13.67;8.43;;;;;;;;;;5045037;28;20328;-76
2024/01/16 10:31:31;;;;;;;17.67;8.30;;;;;;;;;;5029230;28;20190;-77
2024/01/16 10:33:56;;;;;;;17.53;8.73;;;;;;;;;;5044837;28;20257;-76
2024/01/16 10:36:23;;;;;;;17.57;8.53;;;;;;;;;;5039843;28;20614;-76
2024/01/16 10:38:57;;;;;;;17.67;8.73;;;;;;;;;;5029493;28;20302;-77
2024/01/16 10:41:25;;;;;;;19.37;8.80;;;;;;;;;;5039520;28;20221;-76
2024/01/16 10:44:04;;;;;;;13.03;7.63;;;;;;;;;;5028984;28;20263;-76
2024/01/16 10:46:31;;;;;;;16.53;8.57;;;;;;;;;;5035398;28;20213;-76
2024/01/16 10:49:02;;;;;;;15.90;7.97;;;;;;;;;;5048132;28;20190;-76
2024/01/16 10:51:29;;;;;;;16.77;8.27;;;;;;;;;;5030564;28;20400;-76
2024/01/16 10:53:59;;;;;;;16.53;8.47;;;;;;;;;;5028156;28;20186;-76
2024/01/16 10:56:27;;;;;;;18.17;8.43;;;;;;;;;;5032343;28;20185;-76
2024/01/16 10:59:01;;;;;;;22.23;9.40;;;;;;;;;;5047760;28;20221;-76
2024/01/16 11:01:28;;;;;;;17.90;9.80;;;;;;;;;;5026806;28;20299;-76
2024/01/16 11:03:57;;;;;;;16.80;8.83;;;;;;;;;;5039492;28;20190;-76
2024/01/16 11:06:23;;;;;;;19.00;8.87;;;;;;;;;;5033399;28;20273;-75
2024/01/16 11:08:49;;;;;;;17.10;8.33;;;;;;;;;;5042111;28;20280;-75
2024/01/16 11:11:15;;;;;;;21.77;8.83;;;;;;;;;;5041124;28;20896;-75
2024/01/16 11:13:44;;;;;;;14.83;8.60;;;;;;;;;;5048549;28;20661;-76
2024/01/16 11:16:13;;;;;;;13.83;8.57;;;;;;;;;;5035985;28;20334;-76
2024/01/16 11:18:39;;;;;;;21.73;8.53;;;;;;;;;;5032169;28;20220;-77
2024/01/16 11:21:07;;;;;;;17.77;7.90;;;;;;;;;;5031495;28;20189;-77
2024/01/16 11:23:34;;;;;;;16.77;8.23;;;;;;;;;;5034476;28;20224;-76
2024/01/16 11:26:20;;;;;;;13.80;7.73;;;;;;;;;;5027111;28;20600;-76
2024/01/16 11:28:46;;;;;;;16.93;7.43;;;;;;;;;;5031747;28;20190;-76
2024/01/16 11:31:34;;;;;;;14.23;7.60;;;;;;;;;;5037880;28;20197;-75
2024/01/16 11:34:01;;;;;;;20.63;7.80;;;;;;;;;;5039920;28;20197;-75
2024/01/16 11:36:45;;;;;;;15.67;7.37;;;;;;;;;;5044752;28;20185;-75
2024/01/16 11:39:18;;;;;;;15.70;6.80;;;;;;;;;;5026890;28;20214;-75
2024/01/16 11:41:58;;;;;;;18.47;6.07;;;;;;;;;;5039708;28;20233;-76
2024/01/16 11:44:54;;;;;;;11.90;5.70;;;;;;;;;;5028678;28;20752;-75
2024/01/16 11:47:23;;;;;;;12.00;5.90;;;;;;;;;;5047948;28;20236;-74
2024/01/16 11:50:07;;;;;;;12.90;5.60;;;;;;;;;;5016379;28;20629;-76
2024/01/16 11:52:43;;;;;;;12.83;5.97;;;;;;;;;;5046649;28;20274;-75
2024/01/16 11:55:32;;;;;;;9.13;5.60;;;;;;;;;;5030332;28;20543;-75
2024/01/16 11:58:26;;;;;;;10.63;5.40;;;;;;;;;;5027634;28;20296;-75
2024/01/16 12:00:52;;;;;;;8.33;4.90;;;;;;;;;;5034707;28;20197;-75
2024/01/16 12:03:21;;;;;;;19.43;6.67;;;;;;;;;;5047382;28;20192;-75
2024/01/16 12:06:06;;;;;;;15.60;6.57;;;;;;;;;;5027517;28;20190;-75
2024/01/16 12:08:32;;;;;;;12.53;5.40;;;;;;;;;;5026801;28;20268;-75
2024/01/16 12:10:57;;;;;;;11.10;4.67;;;;;;;;;;5047255;28;20343;-75
2024/01/16 12:13:23;;;;;;;8.90;4.07;;;;;;;;;;5031889;28;20201;-75
2024/01/16 12:15:58;;;;;;;9.07;4.80;;;;;;;;;;5027027;28;20237;-75
2024/01/16 12:18:24;;;;;;;14.40;5.17;;;;;;;;;;5041810;28;20224;-75
2024/01/16 12:20:50;;;;;;;11.10;4.20;;;;;;;;;;5045504;28;20189;-75
2024/01/16 12:23:16;;;;;;;10.27;4.53;;;;;;;;;;5039543;28;20937;-75
2024/01/16 12:25:41;;;;;;;9.20;4.30;;;;;;;;;;5046591;28;20189;-75
2024/01/16 12:28:10;;;;;;;16.73;4.13;;;;;;;;;;5036189;28;20193;-75
2024/01/16 12:30:37;;;;;;;7.03;3.83;;;;;;;;;;5037963;28;20182;-75
2024/01/16 12:33:06;;;;;;;10.33;4.13;;;;;;;;;;5029462;28;20186;-75
2024/01/16 12:35:45;;;;;;;11.73;4.20;;;;;;;;;;5023999;28;20186;-75
2024/01/16 12:38:14;;;;;;;9.13;3.70;;;;;;;;;;5034156;28;20260;-75
2024/01/16 12:40:49;;;;;;;12.73;4.07;;;;;;;;;;5039512;28;20244;-75
2024/01/16 12:43:17;;;;;;;12.73;3.50;;;;;;;;;;5033147;28;20197;-75
2024/01/16 12:45:44;;;;;;;10.47;4.10;;;;;;;;;;5035473;28;20186;-75
2024/01/16 12:48:10;;;;;;;13.00;4.00;;;;;;;;;;5045579;28;20193;-75
2024/01/16 12:50:37;;;;;;;10.80;3.50;;;;;;;;;;5037772;28;20268;-75
2024/01/16 12:53:04;;;;;;;15.40;3.50;;;;;;;;;;5030091;28;20751;-75
2024/01/16 12:55:34;;;;;;;10.33;3.30;;;;;;;;;;5030640;28;20228;-75
2024/01/16 12:58:18;;;;;;;8.40;3.43;;;;;;;;;;5033547;28;20190;-74
2024/01/16 13:00:48;;;;;;;11.77;3.73;;;;;;;;;;5040771;28;20661;-74
2024/01/16 13:03:21;;;;;;;7.93;3.40;;;;;;;;;;5033712;28;20187;-74
2024/01/16 13:06:00;;;;;;;9.93;3.00;;;;;;;;;;5040924;28;20521;-74
2024/01/16 13:08:26;;;;;;;4.40;3.03;;;;;;;;;;5031408;28;20179;-74
2024/01/16 13:11:09;;;;;;;8.07;3.60;;;;;;;;;;5030729;28;20224;-75
2024/01/16 13:13:35;;;;;;;7.90;3.70;;;;;;;;;;5027387;28;20182;-75
2024/01/16 13:16:02;;;;;;;9.23;3.20;;;;;;;;;;5023401;28;20229;-75
2024/01/16 13:18:29;;;;;;;9.33;3.40;;;;;;;;;;5048751;28;20208;-75
2024/01/16 13:20:56;;;;;;;12.13;3.07;;;;;;;;;;5041359;28;20201;-75
2024/01/16 13:23:24;;;;;;;7.30;2.97;;;;;;;;;;5033545;28;20278;-75
2024/01/16 13:25:50;;;;;;;9.83;3.40;;;;;;;;;;5035071;28;20194;-75
2024/01/16 13:28:16;;;;;;;7.47;3.20;;;;;;;;;;5043891;28;20224;-75
2024/01/16 13:30:43;;;;;;;11.73;3.77;;;;;;;;;;5037334;28;20185;-75
2024/01/16 13:33:09;;;;;;;11.10;3.67;;;;;;;;;;5044578;28;20208;-75
2024/01/16 13:35:36;;;;;;;7.13;3.13;;;;;;;;;;5042319;28;20174;-75
2024/01/16 13:38:03;;;;;;;7.33;2.87;;;;;;;;;;5044118;28;20190;-75
2024/01/16 13:40:29;;;;;;;11.13;3.20;;;;;;;;;;5040884;28;20213;-75
2024/01/16 13:42:55;;;;;;;6.57;2.60;;;;;;;;;;5045243;28;20198;-75
2024/01/16 13:45:20;;;;;;;8.97;2.60;;;;;;;;;;5022033;28;20179;-75
2024/01/16 13:47:46;;;;;;;9.43;3.40;;;;;;;;;;5041348;28;20328;-75
2024/01/16 13:50:12;;;;;;;4.70;2.60;;;;;;;;;;5044116;28;20190;-75
2024/01/16 13:52:38;;;;;;;5.73;2.40;;;;;;;;;;5044550;28;20178;-75
2024/01/16 13:55:05;;;;;;;6.93;2.90;;;;;;;;;;5043711;28;20629;-75
2024/01/16 13:57:36;;;;;;;9.57;3.07;;;;;;;;;;5037558;28;20277;-75
2024/01/16 14:00:07;;;;;;;8.53;2.70;;;;;;;;;;5039194;28;20206;-75
2024/01/16 14:02:37;;;;;;;8.50;2.90;;;;;;;;;;5059649;28;20255;-75
2024/01/16 14:05:05;;;;;;;12.70;3.47;;;;;;;;;;5045338;28;20209;-75
2024/01/16 14:07:31;;;;;;;6.83;2.30;;;;;;;;;;5033014;28;20557;-75
2024/01/16 14:09:56;;;;;;;9.80;2.90;;;;;;;;;;5043036;28;20184;-75
2024/01/16 14:12:24;;;;;;;6.93;2.30;;;;;;;;;;5044571;28;20661;-75
2024/01/16 14:14:51;;;;;;;8.43;2.73;;;;;;;;;;5039325;28;20310;-75
2024/01/16 14:17:16;;;;;;;9.00;2.60;;;;;;;;;;5035822;28;20186;-75
2024/01/16 14:19:42;;;;;;;7.17;2.23;;;;;;;;;;5031393;28;20224;-75
2024/01/16 14:22:07;;;;;;;6.47;2.47;;;;;;;;;;5046092;28;20190;-75
2024/01/16 14:24:33;;;;;;;12.00;2.43;;;;;;;;;;5043505;28;20487;-75
2024/01/16 14:26:59;;;;;;;7.43;2.50;;;;;;;;;;5036604;28;20192;-75
2024/01/16 14:29:26;;;;;;;6.27;2.43;;;;;;;;;;5029907;28;20186;-75
2024/01/16 14:31:52;;;;;;;8.90;2.80;;;;;;;;;;5040765;28;20189;-75
2024/01/16 14:34:17;;;;;;;7.63;2.83;;;;;;;;;;5036644;28;20192;-75